Time;durP1;ratioP1;P1;durP2;ratioP2;P2;SDS_P1;SDS_P2;PMS_P1;PMS_P2;Temp;Humidity;BMP_temperature;BMP_pressure;BME280_temperature;BME280_humidity;BME280_pressure;Samples;Min_cycle;Max_cycle;Signal;HPM_P1;HPM_P2
2022/11/12 08:25:42;;;;;;;;;;;;;;;;;;5057318;27;1360182;-62
2022/11/12 08:28:07;;;;;;;;;;;;;;;;;;5065236;28;5025;-65
2022/11/12 08:30:33;;;;;;;;;;;;;;;;;;5071647;28;4676;-65
2022/11/12 08:32:59;;;;;;;;;;;;;;;;;;5077181;28;1101;-65
2022/11/12 08:35:25;;;;;;;;;;;;;;;;;;5084206;28;4590;-66
2022/11/12 08:37:50;;;;;;;;;;;;;;;;;;5085611;28;4957;-66
2022/11/12 08:40:16;;;;;;;;;;;;;;;;;;5085103;28;4435;-66
2022/11/12 08:42:41;;;;;;;;;;;;;;;;;;5077173;28;5093;-65
2022/11/12 08:45:06;;;;;;;;;;;;;;;;;;5065461;28;1930;-64
2022/11/12 08:47:32;;;;;;;;;;;;;;;;;;5049754;28;5023;-64
2022/11/12 08:49:57;;;;;;;;;;;;;;;;;;5074871;28;4477;-69
2022/11/12 08:52:22;;;;;;;;;;;;;;;;;;5074801;28;4850;-67
2022/11/12 08:54:47;;;;;;;;;;;;;;;;;;5077125;28;4724;-68
2022/11/12 08:57:13;;;;;;;;;;;;;;;;;;5068821;28;1735;-67
2022/11/12 08:59:38;;;;;;;;;;;;;;;;;;5055125;28;4749;-67
2022/11/12 09:02:05;;;;;;;;;;;;;;;;;;5081171;28;4462;-67
2022/11/12 09:04:30;;;;;;;;;;;;;;;;;;5078769;28;5143;-68
2022/11/12 09:06:55;;;;;;;;;;;;;;;;;;5077933;28;4840;-69
2022/11/12 09:09:20;;;;;;;;;;;;;;;;;;5080676;28;1741;-68
2022/11/12 09:11:46;;;;;;;;;;;;;;;;;;5073800;28;4963;-68
2022/11/12 09:14:11;;;;;;;;;;;;;;;;;;5072998;28;4885;-68
2022/11/12 09:16:36;;;;;;;;;;;;;;;;;;5073505;28;5044;-68
2022/11/12 09:19:02;;;;;;;;;;;;;;;;;;5070875;28;4561;-69
2022/11/12 09:21:27;;;;;;;;;;;;;;;;;;5066566;28;1482;-66
2022/11/12 09:23:52;;;;;;;;;;;;;;;;;;5071937;28;4617;-68
2022/11/12 09:26:18;;;;;;;;;;;;;;;;;;5076642;28;5096;-65
2022/11/12 09:28:43;;;;;;;;;;;;;;;;;;5070871;28;5134;-65
2022/11/12 09:31:08;;;;;;;;;;;;;;;;;;5082596;28;5076;-67
2022/11/12 09:33:33;;;;;;;;;;;;;;;;;;5069701;28;4995;-66
2022/11/12 09:35:59;;;;;;;;;;;;;;;;;;5057574;28;1518;-66
2022/11/12 09:38:24;;;;;;;;;;;;;;;;;;5065525;28;4967;-66
2022/11/12 09:40:50;;;;;;;;;;;;;;;;;;5061819;28;5137;-66
2022/11/12 09:43:17;;;;;;;;;;;;;;;;;;5064039;28;5093;-68
2022/11/12 09:45:43;;;;;;;;;;;;;;;;;;5048736;28;4474;-67
2022/11/12 09:48:09;;;;;;;;;;;;;;;;;;5049281;28;1629;-68
2022/11/12 09:50:39;;;;;;;;;;;;;;;;;;5044661;28;4794;-67
2022/11/12 09:53:11;;;;;;;;;;;;;;;;;;5049708;28;4656;-68
2022/11/12 09:55:41;;;;;;;;;;;;;;;;;;5052429;28;5263;-67
2022/11/12 09:58:13;;;;;;;;;;;;;;;;;;5046361;28;5143;-67
2022/11/12 10:00:51;;;;;;;;;;;;;;;;;;5063620;28;5405;-67
2022/11/12 10:03:42;;;;;;;;;;;;;;;;;;5067135;28;1651;-67
2022/11/12 10:06:27;;;;;;;;;;;;;;;;;;5028237;28;4899;-67
2022/11/12 10:08:56;;;;;;;;;;;;;;;;;;5031481;28;5136;-67
2022/11/12 10:11:21;;;;;;;;;;;;;;;;;;5058611;28;5045;-66
2022/11/12 10:13:58;;;;;;;;;;;;;;;;;;5050322;28;5034;-66
2022/11/12 10:16:41;;;;;;;;;;;;;;;;;;5059562;28;5204;-67
2022/11/12 10:19:25;;;;;;;;;;;;;;;;;;5043762;28;4719;-68
2022/11/12 10:22:00;;;;;;;;;;;;;;;;;;5066971;28;4783;-69
2022/11/12 10:24:26;;;;;;;;;;;;;;;;;;5048273;28;1963;-68
2022/11/12 10:26:52;;;;;;;;;;;;;;;;;;5047104;28;4556;-70
2022/11/12 10:29:31;;;;;;;;;;;;;;;;;;5033674;28;6740;-63
2022/11/12 10:31:56;;;;;;;;;;;;;;;;;;5038068;28;5359;-63
2022/11/12 10:34:22;;;;;;;;;;;;;;;;;;5040373;28;5299;-63
2022/11/12 10:36:48;;;;;;;;;;;;;;;;;;5043079;28;5284;-63
2022/11/12 10:39:32;;;;;;;;;;;;;;;;;;5040831;28;5262;-64
2022/11/12 10:42:01;;;;;;;;;;;;;;;;;;5048800;28;4501;-64
2022/11/12 10:44:26;;;;;;;;;;;;;;;;;;5036924;28;5225;-63
2022/11/12 10:46:52;;;;;;;;;;;;;;;;;;5044598;28;5309;-62
2022/11/12 10:49:18;;;;;;;;;;;;;;;;;;5046272;28;1891;-63
2022/11/12 10:51:52;;;;;;;;;;;;;;;;;;5044981;28;5319;-62
2022/11/12 10:54:36;;;;;;;;;;;;;;;;;;5033712;28;4566;-64
2022/11/12 10:57:31;;;;;;;;;;;;;;;;;;5046088;28;5007;-62
2022/11/12 11:00:11;;;;;;;;;;;;;;;;;;5030237;28;4564;-60
2022/11/12 11:02:37;;;;;;;;;;;;;;;;;;5030096;28;5045;-62
2022/11/12 11:05:29;;;;;;;;;;;;;;;;;;5042020;28;5563;-63
2022/11/12 11:07:54;;;;;;;;;;;;;;;;;;5032507;28;4553;-62
2022/11/12 11:10:27;;;;;;;;;;;;;;;;;;5030405;28;1620;-63
2022/11/12 11:13:08;;;;;;;;;;;;;;;;;;5036053;28;5568;-63
2022/11/12 11:15:34;;;;;;;;;;;;;;;;;;5045477;28;4916;-60
2022/11/12 11:17:59;;;;;;;;;;;;;;;;;;5039884;28;4987;-57
2022/11/12 11:20:27;;;;;;;;;;;;;;;;;;5035910;28;5125;-57
2022/11/12 11:22:55;;;;;;;;;;;;;;;;;;5042356;28;4995;-60
2022/11/12 11:25:27;;;;;;;;;;;;;;;;;;5059987;28;1918;-60
2022/11/12 11:28:02;;;;;;;;;;;;;;;;;;5045042;28;4806;-61
2022/11/12 11:30:28;;;;;;;;;;;;;;;;;;5057062;28;4631;-60
2022/11/12 11:32:53;;;;;;;;;;;;;;;;;;5058747;28;4894;-59
2022/11/12 11:35:36;;;;;;;;;;;;;;;;;;5067924;28;5300;-59
2022/11/12 11:38:20;;;;;;;;;;;;;;;;;;5042415;28;6045;-60
2022/11/12 11:41:06;;;;;;;;;;;;;;;;;;5064092;28;4488;-59
2022/11/12 11:43:35;;;;;;;;;;;;;;;;;;5002420;28;4560;-59
2022/11/12 11:46:12;;;;;;;;;;;;;;;;;;5044636;28;1568;-60
2022/11/12 11:48:37;;;;;;;;;;;;;;;;;;5056088;28;5398;-57
2022/11/12 11:51:05;;;;;;;;;;;;;;;;;;5060939;28;4827;-58
2022/11/12 11:53:37;;;;;;;;;;;;;;;;;;5063901;28;4684;-62
2022/11/12 11:56:06;;;;;;;;;;;;;;;;;;5029204;28;5212;-60
2022/11/12 11:58:37;;;;;;;;;;;;;;;;;;5065741;28;5686;-61
2022/11/12 12:01:02;;;;;;;;;;;;;;;;;;5063546;28;1584;-58
2022/11/12 12:03:37;;;;;;;;;;;;;;;;;;5058128;28;4426;-55
2022/11/12 12:06:08;;;;;;;;;;;;;;;;;;5062551;28;4966;-58
2022/11/12 12:08:46;;;;;;;;;;;;;;;;;;5048593;28;4954;-58
2022/11/12 12:11:14;;;;;;;;;;;;;;;;;;5055929;28;5747;-64
2022/11/12 12:13:45;;;;;;;;;;;;;;;;;;5044904;28;4489;-59
2022/11/12 12:16:19;;;;;;;;;;;;;;;;;;5068866;28;1095;-60
2022/11/12 12:18:47;;;;;;;;;;;;;;;;;;5035843;28;4634;-59
2022/11/12 12:21:16;;;;;;;;;;;;;;;;;;5043040;28;5373;-59
2022/11/12 12:23:45;;;;;;;;;;;;;;;;;;5062769;28;4847;-59
2022/11/12 12:26:15;;;;;;;;;;;;;;;;;;5062561;28;4899;-59
2022/11/12 12:29:00;;;;;;;;;;;;;;;;;;5061971;28;5044;-60
2022/11/12 12:31:31;;;;;;;;;;;;;;;;;;5059763;28;1447;-56
2022/11/12 12:34:01;;;;;;;;;;;;;;;;;;5050535;28;5129;-59
2022/11/12 12:36:29;;;;;;;;;;;;;;;;;;5027333;28;5806;-57
2022/11/12 12:39:01;;;;;;;;;;;;;;;;;;5041564;28;5454;-55
2022/11/12 12:41:30;;;;;;;;;;;;;;;;;;5047206;28;5008;-55
2022/11/12 12:43:57;;;;;;;;;;;;;;;;;;5048758;28;4958;-60
2022/11/12 12:46:23;;;;;;;;;;;;;;;;;;5039067;28;1724;-62
2022/11/12 12:48:50;;;;;;;;;;;;;;;;;;5061099;28;5020;-57
2022/11/12 12:51:16;;;;;;;;;;;;;;;;;;5036307;28;5088;-59
2022/11/12 12:53:41;;;;;;;;;;;;;;;;;;5037613;28;5231;-65
2022/11/12 12:56:13;;;;;;;;;;;;;;;;;;5028049;28;5036;-64
2022/11/12 12:58:47;;;;;;;;;;;;;;;;;;5028175;28;4615;-66
2022/11/12 13:01:19;;;;;;;;;;;;;;;;;;5029847;28;1644;-62
2022/11/12 13:03:45;;;;;;;;;;;;;;;;;;5035490;28;4814;-61
2022/11/12 13:06:30;;;;;;;;;;;;;;;;;;5045228;28;5056;-62
2022/11/12 13:09:01;;;;;;;;;;;;;;;;;;5039466;28;4444;-61
2022/11/12 13:14:34;;;;;;;;;;;;;;;;;;5031686;28;5132;-62
2022/11/12 13:17:00;;;;;;;;;;;;;;;;;;5045529;28;5116;-64
2022/11/12 13:19:35;;;;;;;;;;;;;;;;;;5048169;28;1647;-58
2022/11/12 13:22:16;;;;;;;;;;;;;;;;;;5038723;28;4679;-64
2022/11/12 13:24:59;;;;;;;;;;;;;;;;;;5045200;28;4847;-62
2022/11/12 13:28:02;;;;;;;;;;;;;;;;;;5050870;28;4686;-58
2022/11/12 13:30:27;;;;;;;;;;;;;;;;;;5040890;28;4993;-65
2022/11/12 13:32:56;;;;;;;;;;;;;;;;;;5045139;28;5080;-65
2022/11/12 13:35:34;;;;;;;;;;;;;;;;;;5050794;28;4980;-67
2022/11/12 13:38:19;;;;;;;;;;;;;;;;;;5047177;28;5172;-64
2022/11/12 13:40:57;;;;;;;;;;;;;;;;;;5039356;28;5003;-59
2022/11/12 13:43:37;;;;;;;;;;;;;;;;;;5040768;28;1828;-65
2022/11/12 13:46:03;;;;;;;;;;;;;;;;;;5050224;28;5163;-63
2022/11/12 13:48:29;;;;;;;;;;;;;;;;;;5039214;28;4992;-58
2022/11/12 13:50:56;;;;;;;;;;;;;;;;;;5038626;28;5103;-61
2022/11/12 13:53:22;;;;;;;;;;;;;;;;;;5038711;28;5019;-62
2022/11/12 13:55:48;;;;;;;;;;;;;;;;;;5045263;28;5198;-64
2022/11/12 13:58:26;;;;;;;;;;;;;;;;;;5050534;28;1130;-62
2022/11/12 14:00:52;;;;;;;;;;;;;;;;;;5036554;28;4576;-58
2022/11/12 14:03:18;;;;;;;;;;;;;;;;;;5037908;28;5043;-56
2022/11/12 14:05:45;;;;;;;;;;;;;;;;;;5039138;28;4598;-60
2022/11/12 14:08:10;;;;;;;;;;;;;;;;;;5023637;28;5032;-64
2022/11/12 14:10:47;;;;;;;;;;;;;;;;;;5042434;28;4706;-62
2022/11/12 14:13:15;;;;;;;;;;;;;;;;;;5039350;28;1537;-61
2022/11/12 14:15:44;;;;;;;;;;;;;;;;;;5042875;28;4789;-62
2022/11/12 14:18:21;;;;;;;;;;;;;;;;;;5036230;28;5060;-68
2022/11/12 14:20:46;;;;;;;;;;;;;;;;;;5042674;28;4693;-66
2022/11/12 14:23:13;;;;;;;;;;;;;;;;;;5045537;28;5140;-66
2022/11/12 14:25:48;;;;;;;;;;;;;;;;;;5047131;28;4554;-64
2022/11/12 14:28:28;;;;;;;;;;;;;;;;;;5029094;28;1016;-63
2022/11/12 14:30:54;;;;;;;;;;;;;;;;;;5038764;28;4456;-65
2022/11/12 14:33:20;;;;;;;;;;;;;;;;;;5048585;28;4955;-66
2022/11/12 14:35:46;;;;;;;;;;;;;;;;;;5043675;28;4755;-66
2022/11/12 14:38:17;;;;;;;;;;;;;;;;;;5038835;28;5761;-63
2022/11/12 14:40:43;;;;;;;;;;;;;;;;;;5029746;28;5572;-64
2022/11/12 14:43:28;;;;;;;;;;;;;;;;;;5040762;28;1876;-65
2022/11/12 14:45:53;;;;;;;;;;;;;;;;;;5046737;28;4402;-64
2022/11/12 14:48:18;;;;;;;;;;;;;;;;;;5047925;28;4919;-64
2022/11/12 14:50:47;;;;;;;;;;;;;;;;;;5043695;28;4600;-65
2022/11/12 14:53:12;;;;;;;;;;;;;;;;;;5035414;28;5168;-64
2022/11/12 14:55:37;;;;;;;;;;;;;;;;;;5039608;28;5508;-64
2022/11/12 14:58:03;;;;;;;;;;;;;;;;;;5044312;28;1502;-65
2022/11/12 15:00:31;;;;;;;;;;;;;;;;;;5033515;28;5193;-64
2022/11/12 15:02:56;;;;;;;;;;;;;;;;;;5038244;28;4826;-67
2022/11/12 15:05:22;;;;;;;;;;;;;;;;;;5040382;28;4939;-69
2022/11/12 15:07:59;;;;;;;;;;;;;;;;;;5030575;28;5010;-77
2022/11/12 15:10:29;;;;;;;;;;;;;;;;;;5036629;28;1446;-65
2022/11/12 15:13:07;;;;;;;;;;;;;;;;;;5036680;28;4876;-65
2022/11/12 15:15:33;;;;;;;;;;;;;;;;;;5035156;28;5050;-66
2022/11/12 15:17:59;;;;;;;;;;;;;;;;;;5047190;28;5035;-66
2022/11/12 15:20:24;;;;;;;;;;;;;;;;;;5049204;28;4595;-65
2022/11/12 15:22:50;;;;;;;;;;;;;;;;;;5047517;28;5182;-64
2022/11/12 15:25:16;;;;;;;;;;;;;;;;;;5049303;28;1910;-63
2022/11/12 15:27:41;;;;;;;;;;;;;;;;;;5048880;28;5042;-65
2022/11/12 15:30:11;;;;;;;;;;;;;;;;;;5047592;28;5388;-66
2022/11/12 15:32:36;;;;;;;;;;;;;;;;;;5046797;28;5489;-65
2022/11/12 15:35:02;;;;;;;;;;;;;;;;;;5048726;28;5070;-65
2022/11/12 15:37:27;;;;;;;;;;;;;;;;;;5040816;28;5140;-66
2022/11/12 15:39:52;;;;;;;;;;;;;;;;;;5047345;28;4533;-64
2022/11/12 15:42:25;;;;;;;;;;;;;;;;;;5048063;28;4816;-64
2022/11/12 15:44:54;;;;;;;;;;;;;;;;;;5010631;28;5037;-64
2022/11/12 15:47:20;;;;;;;;;;;;;;;;;;5038190;28;4702;-64
2022/11/12 15:49:46;;;;;;;;;;;;;;;;;;5028835;28;4945;-64
2022/11/12 15:52:11;;;;;;;;;;;;;;;;;;5029626;28;886;-64
2022/11/12 15:54:37;;;;;;;;;;;;;;;;;;5029016;28;5066;-65
2022/11/12 15:57:02;;;;;;;;;;;;;;;;;;5028477;28;5016;-65
2022/11/12 15:59:27;;;;;;;;;;;;;;;;;;5028762;28;5044;-63
2022/11/12 16:01:52;;;;;;;;;;;;;;;;;;5013432;28;5105;-68
2022/11/12 16:04:18;;;;;;;;;;;;;;;;;;5048105;28;1963;-64
2022/11/12 16:06:43;;;;;;;;;;;;;;;;;;5048005;28;4454;-63
2022/11/12 16:09:08;;;;;;;;;;;;;;;;;;5045227;28;5177;-63
2022/11/12 16:11:37;;;;;;;;;;;;;;;;;;5034305;28;4476;-66
2022/11/12 16:14:03;;;;;;;;;;;;;;;;;;5044506;28;4525;-67
2022/11/12 16:16:28;;;;;;;;;;;;;;;;;;5047691;28;1068;-64
2022/11/12 16:18:53;;;;;;;;;;;;;;;;;;5040505;28;4941;-66
2022/11/12 16:21:19;;;;;;;;;;;;;;;;;;5028555;28;4506;-66
2022/11/12 16:23:44;;;;;;;;;;;;;;;;;;5027975;28;4817;-64
2022/11/12 16:26:10;;;;;;;;;;;;;;;;;;5028122;28;5120;-64
2022/11/12 16:28:36;;;;;;;;;;;;;;;;;;5031349;28;4561;-67
2022/11/12 16:31:01;;;;;;;;;;;;;;;;;;5045331;28;1212;-64
2022/11/12 16:33:26;;;;;;;;;;;;;;;;;;5047939;28;5526;-66
2022/11/12 16:35:51;;;;;;;;;;;;;;;;;;5048216;28;4594;-65
2022/11/12 16:38:17;;;;;;;;;;;;;;;;;;5041192;28;5294;-66
2022/11/12 16:40:42;;;;;;;;;;;;;;;;;;5067636;28;5008;-65
2022/11/12 16:43:08;;;;;;;;;;;;;;;;;;5045898;28;1667;-67
2022/11/12 16:45:40;;;;;;;;;;;;;;;;;;5049360;28;4462;-64
2022/11/12 16:48:12;;;;;;;;;;;;;;;;;;5052443;28;5128;-66
2022/11/12 16:50:37;;;;;;;;;;;;;;;;;;5071983;28;4410;-67
2022/11/12 16:53:03;;;;;;;;;;;;;;;;;;5072062;28;4902;-67
2022/11/12 16:55:28;;;;;;;;;;;;;;;;;;5072278;28;1088;-66
2022/11/12 16:57:53;;;;;;;;;;;;;;;;;;5071506;28;4997;-68
2022/11/12 17:00:19;;;;;;;;;;;;;;;;;;5071721;28;5025;-65
2022/11/12 17:02:44;;;;;;;;;;;;;;;;;;5052244;28;4988;-66
2022/11/12 17:05:13;;;;;;;;;;;;;;;;;;5072038;28;5162;-67
2022/11/12 17:07:38;;;;;;;;;;;;;;;;;;5071603;28;5010;-66
2022/11/12 17:10:04;;;;;;;;;;;;;;;;;;5070768;28;1092;-67
2022/11/12 17:12:29;;;;;;;;;;;;;;;;;;5051848;28;4971;-66
2022/11/12 17:14:54;;;;;;;;;;;;;;;;;;5033597;28;4942;-66
2022/11/12 17:17:19;;;;;;;;;;;;;;;;;;5063208;28;4517;-65
2022/11/12 17:19:45;;;;;;;;;;;;;;;;;;5071611;28;4988;-67
2022/11/12 17:22:10;;;;;;;;;;;;;;;;;;5072177;28;1039;-67
2022/11/12 17:24:35;;;;;;;;;;;;;;;;;;5071383;28;4915;-66
2022/11/12 17:27:00;;;;;;;;;;;;;;;;;;5071505;28;4926;-64
2022/11/12 17:29:27;;;;;;;;;;;;;;;;;;5053250;28;4429;-64
2022/11/12 17:31:52;;;;;;;;;;;;;;;;;;5068771;28;4921;-65
2022/11/12 17:34:17;;;;;;;;;;;;;;;;;;5041024;28;1683;-65
2022/11/12 17:36:42;;;;;;;;;;;;;;;;;;5057992;28;4527;-65
2022/11/12 17:39:09;;;;;;;;;;;;;;;;;;5071026;28;5202;-65
2022/11/12 17:41:34;;;;;;;;;;;;;;;;;;5071144;28;4589;-67
2022/11/12 17:43:59;;;;;;;;;;;;;;;;;;5057380;28;4507;-65
2022/11/12 17:46:25;;;;;;;;;;;;;;;;;;5071723;28;1084;-65
2022/11/12 17:48:50;;;;;;;;;;;;;;;;;;5070773;28;4890;-66
2022/11/12 17:51:16;;;;;;;;;;;;;;;;;;5070810;28;5064;-66
2022/11/12 17:53:42;;;;;;;;;;;;;;;;;;5052604;28;4528;-65
2022/11/12 17:56:08;;;;;;;;;;;;;;;;;;5070935;28;4825;-65
2022/11/12 17:58:33;;;;;;;;;;;;;;;;;;5069142;28;5085;-67
2022/11/12 18:01:05;;;;;;;;;;;;;;;;;;5071438;28;1093;-67
2022/11/12 18:03:31;;;;;;;;;;;;;;;;;;5070973;28;5135;-66
2022/11/12 18:05:57;;;;;;;;;;;;;;;;;;5070873;28;4876;-66
2022/11/12 18:08:22;;;;;;;;;;;;;;;;;;5052347;28;5418;-67
2022/11/12 18:10:47;;;;;;;;;;;;;;;;;;5069396;28;5130;-66
2022/11/12 18:13:12;;;;;;;;;;;;;;;;;;5024331;28;1629;-65
2022/11/12 18:15:38;;;;;;;;;;;;;;;;;;5070702;28;5135;-67
2022/11/12 18:18:03;;;;;;;;;;;;;;;;;;5070794;28;5101;-66
2022/11/12 18:20:28;;;;;;;;;;;;;;;;;;5070176;28;4972;-67
2022/11/12 18:22:54;;;;;;;;;;;;;;;;;;5070440;28;4907;-66
2022/11/12 18:25:19;;;;;;;;;;;;;;;;;;5070447;28;1957;-66
2022/11/12 18:27:44;;;;;;;;;;;;;;;;;;5068797;28;4416;-65
2022/11/12 18:30:10;;;;;;;;;;;;;;;;;;5068514;28;4556;-67
2022/11/12 18:32:35;;;;;;;;;;;;;;;;;;5070425;28;5067;-67
2022/11/12 18:35:00;;;;;;;;;;;;;;;;;;5051295;28;4949;-66
2022/11/12 18:37:25;;;;;;;;;;;;;;;;;;5063309;28;5209;-65
2022/11/12 18:39:51;;;;;;;;;;;;;;;;;;5067685;28;5034;-65
2022/11/12 18:42:16;;;;;;;;;;;;;;;;;;5053566;28;5000;-66
2022/11/12 18:44:41;;;;;;;;;;;;;;;;;;5051274;28;4571;-66
2022/11/12 18:47:06;;;;;;;;;;;;;;;;;;5050992;28;4521;-66
2022/11/12 18:49:32;;;;;;;;;;;;;;;;;;5056833;28;5097;-66
2022/11/12 18:51:57;;;;;;;;;;;;;;;;;;5070434;28;1067;-67
2022/11/12 18:54:23;;;;;;;;;;;;;;;;;;5069786;28;4458;-65
2022/11/12 18:56:48;;;;;;;;;;;;;;;;;;5066694;28;4594;-65
2022/11/12 18:59:14;;;;;;;;;;;;;;;;;;5065876;28;5097;-66
2022/11/12 19:01:39;;;;;;;;;;;;;;;;;;5064445;28;5047;-65
2022/11/12 19:04:05;;;;;;;;;;;;;;;;;;5055165;28;1910;-66
2022/11/12 19:06:30;;;;;;;;;;;;;;;;;;5050371;28;4937;-66
2022/11/12 19:08:59;;;;;;;;;;;;;;;;;;5066791;28;5175;-65
2022/11/12 19:11:24;;;;;;;;;;;;;;;;;;5063807;28;5476;-65
2022/11/12 19:13:50;;;;;;;;;;;;;;;;;;5057714;28;5081;-65
2022/11/12 19:16:16;;;;;;;;;;;;;;;;;;5068731;28;1244;-64
2022/11/12 19:18:41;;;;;;;;;;;;;;;;;;5068171;28;5277;-67
2022/11/12 19:21:06;;;;;;;;;;;;;;;;;;5053806;28;4462;-65
2022/11/12 19:23:32;;;;;;;;;;;;;;;;;;5067438;28;4868;-65
2022/11/12 19:26:00;;;;;;;;;;;;;;;;;;5053500;28;5141;-66
2022/11/12 19:28:26;;;;;;;;;;;;;;;;;;5050837;28;1690;-66
2022/11/12 19:30:51;;;;;;;;;;;;;;;;;;5063645;28;5031;-66
2022/11/12 19:33:16;;;;;;;;;;;;;;;;;;5039732;28;5161;-69
2022/11/12 19:35:41;;;;;;;;;;;;;;;;;;5067892;28;4557;-67
2022/11/12 19:38:07;;;;;;;;;;;;;;;;;;5067222;28;5242;-67
2022/11/12 19:40:32;;;;;;;;;;;;;;;;;;5064560;28;4633;-66
2022/11/12 19:42:57;;;;;;;;;;;;;;;;;;5063829;28;1678;-65
2022/11/12 19:45:22;;;;;;;;;;;;;;;;;;5049715;28;5006;-63
2022/11/12 19:47:49;;;;;;;;;;;;;;;;;;5051238;28;5366;-61
2022/11/12 19:50:15;;;;;;;;;;;;;;;;;;5046994;28;5079;-58
2022/11/12 19:52:40;;;;;;;;;;;;;;;;;;5063648;28;5011;-58
2022/11/12 19:55:05;;;;;;;;;;;;;;;;;;5067739;28;1527;-60
2022/11/12 19:57:31;;;;;;;;;;;;;;;;;;5058682;28;5399;-58
2022/11/12 19:59:56;;;;;;;;;;;;;;;;;;5060548;28;5120;-57
2022/11/12 20:02:21;;;;;;;;;;;;;;;;;;5029344;28;5064;-57
2022/11/12 20:04:46;;;;;;;;;;;;;;;;;;5051706;28;5158;-58
2022/11/12 20:07:12;;;;;;;;;;;;;;;;;;5058010;28;1389;-59
2022/11/12 20:09:37;;;;;;;;;;;;;;;;;;5052919;28;5008;-59
2022/11/12 20:12:03;;;;;;;;;;;;;;;;;;5047885;28;4905;-59
2022/11/12 20:14:28;;;;;;;;;;;;;;;;;;5051469;28;5109;-59
2022/11/12 20:16:54;;;;;;;;;;;;;;;;;;5048657;28;4962;-65
2022/11/12 20:19:19;;;;;;;;;;;;;;;;;;5032356;28;1380;-59
2022/11/12 20:21:44;;;;;;;;;;;;;;;;;;5067750;28;5276;-59
2022/11/12 20:24:09;;;;;;;;;;;;;;;;;;5058247;28;4940;-60
2022/11/12 20:26:35;;;;;;;;;;;;;;;;;;5062072;28;4530;-58
2022/11/12 20:29:00;;;;;;;;;;;;;;;;;;5065938;28;5010;-57
2022/11/12 20:31:25;;;;;;;;;;;;;;;;;;5050546;28;1514;-59
2022/11/12 20:33:50;;;;;;;;;;;;;;;;;;5055018;28;5065;-58
2022/11/12 20:36:19;;;;;;;;;;;;;;;;;;5058412;28;5007;-59
2022/11/12 20:38:46;;;;;;;;;;;;;;;;;;5066385;28;5253;-55
2022/11/12 20:41:15;;;;;;;;;;;;;;;;;;5055036;28;4512;-59
2022/11/12 20:43:40;;;;;;;;;;;;;;;;;;5058842;28;5000;-59
2022/11/12 20:46:06;;;;;;;;;;;;;;;;;;5060981;28;1973;-58
2022/11/12 20:48:31;;;;;;;;;;;;;;;;;;5059062;28;4465;-58
2022/11/12 20:51:06;;;;;;;;;;;;;;;;;;5056635;28;5068;-59
2022/11/12 20:53:32;;;;;;;;;;;;;;;;;;5035696;28;4951;-59
2022/11/12 20:56:16;;;;;;;;;;;;;;;;;;5059326;28;5193;-59
2022/11/12 20:58:42;;;;;;;;;;;;;;;;;;5033036;28;4963;-60
2022/11/12 21:01:08;;;;;;;;;;;;;;;;;;5061481;28;2141;-59
2022/11/12 21:03:38;;;;;;;;;;;;;;;;;;5053237;28;4428;-59
2022/11/12 21:06:04;;;;;;;;;;;;;;;;;;5047528;28;5162;-59
2022/11/12 21:08:29;;;;;;;;;;;;;;;;;;5052803;28;4517;-60
2022/11/12 21:10:55;;;;;;;;;;;;;;;;;;5053713;28;4996;-55
2022/11/12 21:13:20;;;;;;;;;;;;;;;;;;5054775;28;1534;-58
2022/11/12 21:15:46;;;;;;;;;;;;;;;;;;5060706;28;4941;-59
2022/11/12 21:18:11;;;;;;;;;;;;;;;;;;5048146;28;4445;-58
2022/11/12 21:20:36;;;;;;;;;;;;;;;;;;5067367;28;5060;-57
2022/11/12 21:23:02;;;;;;;;;;;;;;;;;;5058912;28;4553;-59
2022/11/12 21:25:27;;;;;;;;;;;;;;;;;;5047842;28;1991;-57
2022/11/12 21:27:52;;;;;;;;;;;;;;;;;;5028178;28;5164;-58
2022/11/12 21:30:18;;;;;;;;;;;;;;;;;;5057902;28;4529;-57
2022/11/12 21:32:44;;;;;;;;;;;;;;;;;;5055335;28;4641;-56
2022/11/12 21:35:09;;;;;;;;;;;;;;;;;;5065628;28;5022;-66
2022/11/12 21:37:34;;;;;;;;;;;;;;;;;;5061907;28;5512;-62
2022/11/12 21:39:59;;;;;;;;;;;;;;;;;;5071051;28;1452;-61
2022/11/12 21:42:25;;;;;;;;;;;;;;;;;;5070547;28;4878;-62
2022/11/12 21:44:50;;;;;;;;;;;;;;;;;;5058359;28;5003;-66
2022/11/12 21:47:15;;;;;;;;;;;;;;;;;;5064078;28;4992;-59
2022/11/12 21:49:40;;;;;;;;;;;;;;;;;;5045695;28;4999;-63
2022/11/12 21:52:08;;;;;;;;;;;;;;;;;;5070229;28;1344;-64
2022/11/12 21:54:34;;;;;;;;;;;;;;;;;;5051702;28;4925;-59
2022/11/12 21:56:59;;;;;;;;;;;;;;;;;;5052382;28;4416;-60
2022/11/12 21:59:26;;;;;;;;;;;;;;;;;;5049352;28;4906;-60
2022/11/12 22:01:51;;;;;;;;;;;;;;;;;;5053085;28;5006;-59
2022/11/12 22:04:16;;;;;;;;;;;;;;;;;;5051152;28;1915;-60
2022/11/12 22:06:42;;;;;;;;;;;;;;;;;;5070088;28;5055;-60
2022/11/12 22:09:07;;;;;;;;;;;;;;;;;;5035990;28;5592;-52
2022/11/12 22:11:32;;;;;;;;;;;;;;;;;;5048551;28;4886;-60
2022/11/12 22:13:57;;;;;;;;;;;;;;;;;;5047695;28;4606;-59
2022/11/12 22:16:24;;;;;;;;;;;;;;;;;;5027841;28;1462;-60
2022/11/12 22:18:49;;;;;;;;;;;;;;;;;;5052110;28;5046;-56
2022/11/12 22:21:25;;;;;;;;;;;;;;;;;;5048031;28;5086;-61
2022/11/12 22:23:50;;;;;;;;;;;;;;;;;;5055425;28;4908;-61
2022/11/12 22:26:16;;;;;;;;;;;;;;;;;;5047266;28;5048;-61
2022/11/12 22:28:42;;;;;;;;;;;;;;;;;;5030783;28;5189;-57
2022/11/12 22:31:09;;;;;;;;;;;;;;;;;;5043744;28;1403;-54
2022/11/12 22:33:34;;;;;;;;;;;;;;;;;;5004819;28;5076;-60
2022/11/12 22:36:00;;;;;;;;;;;;;;;;;;5050892;28;5048;-59
2022/11/12 22:38:25;;;;;;;;;;;;;;;;;;5069210;28;5326;-61
2022/11/12 22:40:50;;;;;;;;;;;;;;;;;;5066061;28;5030;-64
2022/11/12 22:43:16;;;;;;;;;;;;;;;;;;5063854;28;1479;-62
2022/11/12 22:45:41;;;;;;;;;;;;;;;;;;5037416;28;5050;-66
2022/11/12 22:48:06;;;;;;;;;;;;;;;;;;5061512;28;5064;-61
2022/11/12 22:50:31;;;;;;;;;;;;;;;;;;5065268;28;4974;-62
2022/11/12 22:52:57;;;;;;;;;;;;;;;;;;5055916;28;5143;-58
2022/11/12 22:55:22;;;;;;;;;;;;;;;;;;5067274;28;1278;-59
2022/11/12 22:57:47;;;;;;;;;;;;;;;;;;5048361;28;4904;-60
2022/11/12 23:00:13;;;;;;;;;;;;;;;;;;5042379;28;4472;-60
2022/11/12 23:02:38;;;;;;;;;;;;;;;;;;5044009;28;4634;-61
2022/11/12 23:05:04;;;;;;;;;;;;;;;;;;5032702;28;5147;-60
2022/11/12 23:07:29;;;;;;;;;;;;;;;;;;5016370;28;1204;-61
2022/11/12 23:09:54;;;;;;;;;;;;;;;;;;5052914;28;4927;-55
2022/11/12 23:12:19;;;;;;;;;;;;;;;;;;5050360;28;4857;-62
2022/11/12 23:14:45;;;;;;;;;;;;;;;;;;5055844;28;5014;-57
2022/11/12 23:17:10;;;;;;;;;;;;;;;;;;5061963;28;4993;-60
2022/11/12 23:19:35;;;;;;;;;;;;;;;;;;5063338;28;5031;-62
2022/11/12 23:22:00;;;;;;;;;;;;;;;;;;5067735;28;1483;-61
2022/11/12 23:24:26;;;;;;;;;;;;;;;;;;5049066;28;4557;-61
2022/11/12 23:26:51;;;;;;;;;;;;;;;;;;5025032;28;5038;-60
2022/11/12 23:29:16;;;;;;;;;;;;;;;;;;5054659;28;4495;-61
2022/11/12 23:31:42;;;;;;;;;;;;;;;;;;5064274;28;4499;-62
2022/11/12 23:34:07;;;;;;;;;;;;;;;;;;5055678;28;1475;-56
2022/11/12 23:36:32;;;;;;;;;;;;;;;;;;5052733;28;4672;-61
2022/11/12 23:38:57;;;;;;;;;;;;;;;;;;5067582;28;5124;-62
2022/11/12 23:41:24;;;;;;;;;;;;;;;;;;5068562;28;4917;-62
2022/11/12 23:43:50;;;;;;;;;;;;;;;;;;5057137;28;5177;-61
2022/11/12 23:46:15;;;;;;;;;;;;;;;;;;5062871;28;1965;-62
2022/11/12 23:48:40;;;;;;;;;;;;;;;;;;5065472;28;4941;-61
2022/11/12 23:51:06;;;;;;;;;;;;;;;;;;5059426;28;5131;-61
2022/11/12 23:53:32;;;;;;;;;;;;;;;;;;5062653;28;4494;-68
2022/11/12 23:55:57;;;;;;;;;;;;;;;;;;5068525;28;4945;-68
2022/11/12 23:58:22;;;;;;;;;;;;;;;;;;5056103;28;1456;-65
